Time;durP1;ratioP1;P1;durP2;ratioP2;P2;SDS_P1;SDS_P2;PMS_P1;PMS_P2;Temp;Humidity;BMP_temperature;BMP_pressure;BME280_temperature;BME280_humidity;BME280_pressure;Samples;Min_cycle;Max_cycle;Signal;HPM_P1;HPM_P2
2021/01/28 00:00:44;;;;;;;24.88;11.52;;;0.90;99.90;;;;;;4845924;28;20085;-85
2021/01/28 00:03:11;;;;;;;25.50;9.93;;;0.90;99.90;;;;;;4829081;28;20444;-84
2021/01/28 00:05:37;;;;;;;26.65;10.88;;;0.90;99.90;;;;;;4829846;28;20447;-84
2021/01/28 00:08:01;;;;;;;25.27;11.75;;;0.90;99.90;;;;;;4829896;28;20086;-84
2021/01/28 00:10:26;;;;;;;28.42;11.20;;;0.90;99.90;;;;;;4830015;28;20177;-84
2021/01/28 00:12:51;;;;;;;25.15;11.35;;;0.80;99.90;;;;;;4832609;28;20102;-83
2021/01/28 00:15:16;;;;;;;27.50;10.73;;;0.90;99.90;;;;;;4834253;28;20085;-85
2021/01/28 00:17:39;;;;;;;30.63;12.68;;;0.90;99.90;;;;;;4848068;27;20081;-84
2021/01/28 00:20:10;;;;;;;30.27;12.82;;;0.90;99.90;;;;;;4849585;27;20175;-84
2021/01/28 00:22:33;;;;;;;26.08;11.48;;;0.90;99.90;;;;;;4849085;28;20429;-84
2021/01/28 00:24:56;;;;;;;29.15;13.02;;;0.90;99.90;;;;;;4849334;28;20113;-83
2021/01/28 00:27:20;;;;;;;27.23;13.07;;;0.90;99.90;;;;;;4848300;27;20140;-85
2021/01/28 00:29:43;;;;;;;26.25;12.52;;;0.90;99.90;;;;;;4849424;27;20085;-83
2021/01/28 00:32:06;;;;;;;31.30;12.55;;;0.90;99.90;;;;;;4848581;28;20094;-85
2021/01/28 00:34:29;;;;;;;31.65;13.93;;;1.00;99.90;;;;;;4844887;28;20549;-84
2021/01/28 00:36:52;;;;;;;35.17;12.60;;;0.90;99.90;;;;;;4829093;28;20142;-84
2021/01/28 00:39:15;;;;;;;34.20;12.70;;;0.90;99.90;;;;;;4845976;28;20098;-84
2021/01/28 00:41:38;;;;;;;34.00;13.73;;;0.90;99.90;;;;;;4850062;28;20547;-84
2021/01/28 00:44:02;;;;;;;32.35;13.60;;;0.90;99.90;;;;;;4834215;28;20093;-84
2021/01/28 00:46:25;;;;;;;32.53;12.93;;;0.90;99.90;;;;;;4848986;28;20094;-84
2021/01/28 00:48:49;;;;;;;29.85;13.23;;;0.90;99.90;;;;;;4849292;28;20083;-84
2021/01/28 00:51:13;;;;;;;37.25;15.18;;;;;;;;;;4849726;28;20092;-84
2021/01/28 00:53:36;;;;;;;38.22;15.23;;;0.90;99.90;;;;;;4847519;28;20080;-84
2021/01/28 00:55:59;;;;;;;33.80;14.35;;;0.90;99.90;;;;;;4848991;27;20095;-84
2021/01/28 00:58:26;;;;;;;34.05;14.00;;;0.90;99.90;;;;;;4848871;27;20092;-84
2021/01/28 01:00:51;;;;;;;33.78;14.13;;;0.90;99.90;;;;;;4847925;28;20085;-84
2021/01/28 01:03:16;;;;;;;34.17;15.05;;;0.90;99.90;;;;;;4859949;28;20088;-84
2021/01/28 01:05:40;;;;;;;31.35;14.02;;;0.90;99.90;;;;;;4860369;27;20106;-84
2021/01/28 01:08:05;;;;;;;35.53;14.50;;;0.90;99.90;;;;;;4829753;28;20112;-83
2021/01/28 01:10:36;;;;;;;36.72;14.70;;;0.90;99.90;;;;;;4846333;28;20087;-84
2021/01/28 01:13:00;;;;;;;36.78;14.65;;;0.90;99.90;;;;;;4847771;27;20081;-84
2021/01/28 01:15:23;;;;;;;30.83;13.63;;;0.90;99.90;;;;;;4848559;27;20558;-84
2021/01/28 01:17:48;;;;;;;32.22;14.30;;;0.90;99.90;;;;;;4843694;28;20093;-85
2021/01/28 01:20:13;;;;;;;34.40;13.88;;;0.90;99.90;;;;;;4848839;28;20110;-85
2021/01/28 01:22:37;;;;;;;28.95;13.02;;;0.80;99.90;;;;;;4847531;28;20086;-85
2021/01/28 01:25:01;;;;;;;31.48;14.43;;;0.80;99.90;;;;;;4848957;28;20081;-85
2021/01/28 01:27:24;;;;;;;32.03;13.90;;;0.90;99.90;;;;;;4829533;28;20147;-84
2021/01/28 01:29:47;;;;;;;37.70;14.93;;;0.90;99.90;;;;;;4830119;28;20093;-85
2021/01/28 01:32:10;;;;;;;39.22;15.05;;;0.90;99.90;;;;;;4828347;28;20100;-85
2021/01/28 01:34:34;;;;;;;28.65;14.07;;;;;;;;;;4829086;28;20081;-85
2021/01/28 01:36:57;;;;;;;34.25;14.15;;;0.90;99.90;;;;;;4828564;28;20109;-85
2021/01/28 01:39:20;;;;;;;37.08;14.48;;;0.90;99.90;;;;;;4828334;28;20544;-84
2021/01/28 01:41:43;;;;;;;41.65;17.20;;;0.90;99.90;;;;;;4829657;28;20107;-84
2021/01/28 01:44:07;;;;;;;33.20;14.40;;;1.00;99.90;;;;;;4829229;28;20085;-84
2021/01/28 01:46:31;;;;;;;37.42;15.52;;;;;;;;;;4828867;28;20092;-85
2021/01/28 01:49:00;;;;;;;34.72;15.05;;;1.00;99.90;;;;;;4828905;28;20547;-85
2021/01/28 01:51:29;;;;;;;34.45;14.45;;;1.00;99.90;;;;;;4829145;28;20088;-85
2021/01/28 01:53:55;;;;;;;36.78;16.05;;;1.10;99.90;;;;;;4849068;27;20201;-84
2021/01/28 01:56:24;;;;;;;37.67;15.55;;;1.10;99.90;;;;;;4847477;28;20132;-85
2021/01/28 01:58:52;;;;;;;30.33;12.93;;;1.10;99.90;;;;;;4849514;28;20148;-85
2021/01/28 02:01:16;;;;;;;35.30;14.75;;;1.10;99.90;;;;;;4849759;28;20087;-85
2021/01/28 02:03:40;;;;;;;34.33;14.63;;;1.10;99.90;;;;;;4876820;27;20082;-85
2021/01/28 02:06:15;;;;;;;39.10;14.30;;;1.10;99.90;;;;;;4828312;28;20431;-85
2021/01/28 02:08:39;;;;;;;37.15;15.35;;;1.10;99.90;;;;;;4827760;28;20155;-85
2021/01/28 02:11:07;;;;;;;37.55;15.10;;;1.10;99.90;;;;;;4847659;28;20150;-85
2021/01/28 02:13:30;;;;;;;38.70;15.70;;;1.00;99.90;;;;;;4844687;28;20095;-84
2021/01/28 02:15:54;;;;;;;34.05;14.35;;;1.00;99.90;;;;;;4848322;27;20097;-84
2021/01/28 02:18:17;;;;;;;37.30;14.77;;;1.00;99.90;;;;;;4831279;28;20086;-85
2021/01/28 02:21:05;;;;;;;33.70;13.55;;;1.00;99.90;;;;;;4827814;28;20174;-84
2021/01/28 02:23:44;;;;;;;32.22;13.50;;;1.00;99.90;;;;;;4828617;28;20108;-84
2021/01/28 02:26:09;;;;;;;34.25;13.60;;;1.00;99.90;;;;;;4847837;27;20096;-85
2021/01/28 02:28:32;;;;;;;;;;;0.90;99.90;;;;;;4853615;27;20113;-85
2021/01/28 02:30:59;;;;;;;29.13;13.07;;;1.00;99.90;;;;;;4826934;28;19962;-84
2021/01/28 02:33:44;;;;;;;33.38;13.52;;;1.00;99.90;;;;;;4827396;28;20093;-84
2021/01/28 02:36:07;;;;;;;33.13;13.55;;;1.00;99.90;;;;;;4845545;27;20091;-83
2021/01/28 02:38:31;;;;;;;38.70;14.23;;;1.00;99.90;;;;;;4864722;27;20520;-83
2021/01/28 02:40:55;;;;;;;31.20;12.65;;;1.00;99.90;;;;;;4826333;28;20548;-84
2021/01/28 02:43:19;;;;;;;37.10;13.73;;;1.00;99.90;;;;;;4825879;28;20085;-85
2021/01/28 02:45:43;;;;;;;37.92;14.48;;;;;;;;;;4828817;28;20089;-85
2021/01/28 02:48:09;;;;;;;34.35;14.98;;;1.00;99.90;;;;;;4841130;27;20153;-84
2021/01/28 02:50:32;;;;;;;40.55;13.60;;;1.00;99.90;;;;;;4827667;28;20103;-85
2021/01/28 02:52:56;;;;;;;39.95;13.75;;;1.10;99.90;;;;;;4830978;28;20180;-84
2021/01/28 02:55:19;;;;;;;46.08;15.20;;;1.10;99.90;;;;;;4844313;27;20092;-85
2021/01/28 02:57:42;;;;;;;30.50;12.45;;;1.10;99.90;;;;;;4847631;28;21903;-84
2021/01/28 03:00:10;;;;;;;36.63;12.02;;;1.10;99.90;;;;;;4853826;28;20090;-85
2021/01/28 03:02:34;;;;;;;29.80;12.02;;;1.20;99.90;;;;;;4855689;27;20098;-84
2021/01/28 03:04:58;;;;;;;38.13;13.45;;;1.20;99.90;;;;;;4858955;27;20097;-84
2021/01/28 03:07:21;;;;;;;35.38;12.43;;;1.20;99.90;;;;;;4846422;27;20094;-83
2021/01/28 03:09:44;;;;;;;38.13;14.18;;;1.20;99.90;;;;;;4866580;27;20095;-83
2021/01/28 03:12:09;;;;;;;36.00;13.82;;;1.20;99.90;;;;;;4855984;28;20086;-84
2021/01/28 03:14:33;;;;;;;36.25;13.13;;;1.20;99.90;;;;;;4835319;28;20136;-85
2021/01/28 03:16:58;;;;;;;46.40;13.95;;;1.30;99.90;;;;;;4830867;28;20091;-84
2021/01/28 03:19:21;;;;;;;50.03;14.32;;;1.20;99.90;;;;;;4849450;27;20099;-84
2021/01/28 03:21:45;;;;;;;50.15;14.43;;;1.30;99.90;;;;;;4850913;27;20105;-84
2021/01/28 03:24:08;;;;;;;50.83;15.00;;;1.30;99.90;;;;;;4848668;28;20103;-83
2021/01/28 03:26:32;;;;;;;49.47;13.73;;;1.30;99.90;;;;;;4851390;27;20089;-83
2021/01/28 03:28:55;;;;;;;53.13;14.65;;;1.30;99.90;;;;;;4849402;28;20105;-85
2021/01/28 03:31:18;;;;;;;49.22;14.98;;;1.30;99.90;;;;;;4921894;27;20517;-84
2021/01/28 03:33:43;;;;;;;50.35;14.13;;;;;;;;;;4930801;27;20133;-85
2021/01/28 03:36:07;;;;;;;52.23;14.70;;;1.30;99.90;;;;;;4873825;27;20543;-84
2021/01/28 03:38:30;;;;;;;46.55;14.38;;;1.30;99.90;;;;;;4829857;28;20090;-84
2021/01/28 03:40:53;;;;;;;41.08;12.63;;;1.30;99.90;;;;;;4827823;28;21109;-82
2021/01/28 03:43:16;;;;;;;44.95;13.95;;;1.30;99.90;;;;;;4830924;28;20090;-84
2021/01/28 03:45:38;;;;;;;47.15;13.93;;;1.30;99.90;;;;;;4848214;28;20084;-83
2021/01/28 03:48:02;;;;;;;35.13;11.90;;;1.30;99.90;;;;;;4850836;28;20305;-82
2021/01/28 03:50:29;;;;;;;44.03;11.85;;;1.30;99.90;;;;;;4847805;28;20117;-82
2021/01/28 03:52:53;;;;;;;47.63;13.18;;;1.30;99.90;;;;;;4872760;27;20098;-84
2021/01/28 03:55:17;;;;;;;44.38;13.10;;;1.30;99.90;;;;;;4848975;28;20083;-84
2021/01/28 03:57:40;;;;;;;45.45;13.73;;;1.30;99.90;;;;;;4849773;27;20099;-85
2021/01/28 04:00:06;;;;;;;43.60;13.63;;;1.40;99.90;;;;;;4848150;27;20879;-84
2021/01/28 04:02:29;;;;;;;38.58;11.65;;;1.30;99.90;;;;;;4848790;27;20095;-85
2021/01/28 04:04:52;;;;;;;50.05;13.30;;;1.30;99.90;;;;;;4848902;27;20087;-84
2021/01/28 04:07:17;;;;;;;50.90;12.38;;;1.30;99.90;;;;;;4849137;28;20645;-84
2021/01/28 04:09:41;;;;;;;48.63;12.38;;;1.30;99.90;;;;;;4847815;27;20105;-84
2021/01/28 04:12:05;;;;;;;38.92;12.75;;;1.40;99.90;;;;;;4848475;27;20132;-84
2021/01/28 04:14:28;;;;;;;38.85;12.23;;;1.30;99.90;;;;;;4848131;27;20100;-84
2021/01/28 04:16:52;;;;;;;38.10;11.75;;;1.40;99.90;;;;;;4849470;28;20094;-84
2021/01/28 04:19:15;;;;;;;42.80;11.80;;;1.40;99.90;;;;;;4848776;28;20089;-84
2021/01/28 04:21:38;;;;;;;39.63;11.73;;;1.40;99.90;;;;;;4847909;27;20104;-83
2021/01/28 04:24:04;;;;;;;39.85;12.02;;;1.40;99.90;;;;;;4848273;27;20087;-83
2021/01/28 04:26:27;;;;;;;36.55;11.45;;;1.40;99.90;;;;;;4848183;27;20549;-84
2021/01/28 04:28:52;;;;;;;39.95;11.32;;;1.40;99.90;;;;;;4847481;27;20100;-84
2021/01/28 04:31:15;;;;;;;42.10;11.30;;;;;;;;;;4847648;28;20086;-85
2021/01/28 04:33:38;;;;;;;41.88;12.00;;;;;;;;;;4846063;28;20466;-84
2021/01/28 04:36:02;;;;;;;43.92;11.98;;;1.50;99.90;;;;;;4845268;28;20591;-83
2021/01/28 04:38:25;;;;;;;41.35;11.88;;;1.50;99.90;;;;;;4848755;28;20102;-84
2021/01/28 04:40:52;;;;;;;41.95;12.77;;;1.50;99.90;;;;;;4847296;28;20083;-84
2021/01/28 04:43:23;;;;;;;43.90;12.50;;;1.50;99.90;;;;;;4846683;28;20177;-84
2021/01/28 04:45:45;;;;;;;41.75;12.18;;;1.40;99.90;;;;;;4848048;28;20169;-85
2021/01/28 04:48:11;;;;;;;52.08;13.10;;;1.40;99.90;;;;;;4848034;28;20092;-85
2021/01/28 04:50:37;;;;;;;33.92;10.35;;;1.40;99.90;;;;;;4847570;28;20089;-83
2021/01/28 04:53:05;;;;;;;36.13;11.45;;;1.30;99.90;;;;;;4835444;27;20087;-84
2021/01/28 04:55:36;;;;;;;49.45;13.25;;;1.20;99.90;;;;;;4828189;27;20489;-84
2021/01/28 04:58:00;;;;;;;39.17;11.52;;;1.30;99.90;;;;;;4830194;28;20092;-84
2021/01/28 05:00:24;;;;;;;33.95;10.65;;;1.30;99.90;;;;;;4832889;27;20088;-84
2021/01/28 05:02:47;;;;;;;32.28;10.30;;;1.40;99.90;;;;;;4831964;28;20100;-85
2021/01/28 05:05:12;;;;;;;27.27;9.98;;;1.30;99.90;;;;;;4828761;28;20093;-84
2021/01/28 05:07:37;;;;;;;;;;;1.40;99.90;;;;;;4830069;28;20088;-83
2021/01/28 05:10:11;;;;;;;34.05;9.48;;;1.40;99.90;;;;;;4828233;28;19966;-83
2021/01/28 05:12:34;;;;;;;26.67;8.75;;;1.40;99.90;;;;;;4847419;27;21024;-82
2021/01/28 05:15:15;;;;;;;33.30;9.23;;;1.40;99.90;;;;;;4846482;28;20081;-83
2021/01/28 05:17:38;;;;;;;30.00;9.55;;;1.40;99.90;;;;;;4847059;28;20098;-83
2021/01/28 05:20:03;;;;;;;23.70;8.63;;;1.40;99.90;;;;;;4844631;28;20578;-84
2021/01/28 05:22:30;;;;;;;23.65;8.63;;;1.40;99.90;;;;;;4831603;28;21081;-84
2021/01/28 05:24:55;;;;;;;22.70;8.55;;;1.40;99.90;;;;;;4828783;28;20086;-83
2021/01/28 05:27:29;;;;;;;23.92;8.30;;;1.40;99.90;;;;;;4847859;27;20089;-84
2021/01/28 05:29:55;;;;;;;20.08;8.25;;;1.40;99.90;;;;;;4839792;27;20082;-82
2021/01/28 05:32:38;;;;;;;10.88;5.05;;;1.40;99.90;;;;;;4924805;27;20083;-83
2021/01/28 05:35:25;;;;;;;10.73;3.58;;;1.40;99.90;;;;;;4855557;27;20536;-82
2021/01/28 05:37:49;;;;;;;8.57;3.35;;;1.40;99.90;;;;;;4832511;28;20096;-84
2021/01/28 05:40:18;;;;;;;6.63;3.10;;;1.30;99.90;;;;;;4828774;28;20099;-84
2021/01/28 05:42:43;;;;;;;6.82;3.22;;;1.20;99.90;;;;;;4927214;27;20078;-84
2021/01/28 05:45:23;;;;;;;3.58;1.85;;;1.30;99.90;;;;;;4928317;27;20084;-84
2021/01/28 05:47:48;;;;;;;6.20;3.05;;;1.20;99.90;;;;;;4830335;28;20100;-82
2021/01/28 05:50:20;;;;;;;8.32;3.28;;;1.20;99.90;;;;;;4828940;28;20086;-82
2021/01/28 05:52:44;;;;;;;4.10;2.10;;;1.20;99.90;;;;;;4845949;27;20100;-81
2021/01/28 05:55:10;;;;;;;4.97;2.00;;;1.10;99.90;;;;;;4846347;27;20088;-84
2021/01/28 05:57:51;;;;;;;6.35;3.25;;;1.20;99.90;;;;;;4854321;28;20504;-83
2021/01/28 06:00:22;;;;;;;7.07;2.63;;;1.10;99.90;;;;;;4844718;28;20117;-86
2021/01/28 06:03:18;;;;;;;4.88;2.53;;;1.10;99.90;;;;;;4850679;28;23322;-83
2021/01/28 06:05:55;;;;;;;8.93;2.35;;;1.10;99.90;;;;;;4908005;27;20095;-84
2021/01/28 06:08:42;;;;;;;4.38;2.13;;;1.10;99.90;;;;;;4828079;28;20096;-83
2021/01/28 06:11:42;;;;;;;1.63;0.82;;;1.00;99.90;;;;;;4859112;28;20161;-82
2021/01/28 06:14:25;;;;;;;3.72;1.52;;;0.90;99.90;;;;;;4845713;27;20412;-84
2021/01/28 06:17:02;;;;;;;5.53;1.90;;;0.90;99.90;;;;;;4845809;27;20083;-82
2021/01/28 06:19:50;;;;;;;2.17;1.00;;;0.90;99.90;;;;;;4845173;28;20527;-83
2021/01/28 06:22:23;;;;;;;2.60;1.55;;;0.90;99.90;;;;;;4847492;27;20087;-84
2021/01/28 06:25:31;;;;;;;1.23;1.00;;;0.90;99.90;;;;;;4847230;27;20108;-83
2021/01/28 06:27:59;;;;;;;;;;;0.90;99.90;;;;;;4843219;28;20429;-82
2021/01/28 06:30:32;;;;;;;1.95;1.20;;;0.90;99.90;;;;;;4847559;27;19977;-83
2021/01/28 06:33:16;;;;;;;1.63;1.05;;;0.90;99.90;;;;;;4845401;28;20089;-82
2021/01/28 06:35:54;;;;;;;7.15;1.40;;;0.90;99.90;;;;;;4827850;28;21544;-84
2021/01/28 06:38:46;;;;;;;2.75;1.02;;;0.90;99.90;;;;;;4829194;27;20201;-82
2021/01/28 06:41:14;;;;;;;3.30;1.40;;;0.90;99.90;;;;;;4884227;27;20087;-81
2021/01/28 06:43:47;;;;;;;4.40;1.33;;;0.90;99.90;;;;;;4845932;28;20095;-83
2021/01/28 06:46:28;;;;;;;2.40;1.27;;;0.80;99.90;;;;;;4901845;27;20088;-83
2021/01/28 06:48:57;;;;;;;6.57;1.40;;;0.80;99.90;;;;;;4841036;28;20102;-84
2021/01/28 06:51:30;;;;;;;5.63;1.38;;;0.80;99.90;;;;;;4836669;28;20115;-83
2021/01/28 06:54:00;;;;;;;7.72;1.23;;;0.70;99.90;;;;;;4829891;28;20082;-84
2021/01/28 06:56:30;;;;;;;4.05;1.40;;;0.80;99.90;;;;;;4850354;28;20109;-84
2021/01/28 06:59:04;;;;;;;3.80;1.65;;;0.80;99.90;;;;;;4930244;27;20675;-83
2021/01/28 07:01:36;;;;;;;4.38;1.95;;;0.70;99.90;;;;;;4863447;27;20098;-82
2021/01/28 07:04:11;;;;;;;4.03;1.70;;;0.70;99.90;;;;;;4846672;28;20097;-84
2021/01/28 07:06:42;;;;;;;3.05;1.20;;;0.70;99.90;;;;;;4847286;28;20099;-83
2021/01/28 07:09:16;;;;;;;3.75;1.20;;;0.70;99.90;;;;;;4850549;28;20185;-83
2021/01/28 07:11:41;;;;;;;6.93;1.50;;;0.70;99.90;;;;;;4866284;27;20093;-82
2021/01/28 07:14:06;;;;;;;1.95;0.90;;;0.70;99.90;;;;;;4835418;28;20101;-83
2021/01/28 07:16:32;;;;;;;;;;;0.70;99.90;;;;;;4845291;27;20092;-83
2021/01/28 07:19:05;;;;;;;1.05;0.55;;;0.70;99.90;;;;;;4837568;28;19966;-83
2021/01/28 07:21:33;;;;;;;1.67;1.00;;;0.80;99.90;;;;;;4829575;28;20176;-82
2021/01/28 07:24:08;;;;;;;6.03;1.10;;;0.80;99.90;;;;;;4829002;28;20098;-83
2021/01/28 07:26:48;;;;;;;2.77;0.87;;;0.70;99.90;;;;;;4848341;27;20467;-84
2021/01/28 07:29:40;;;;;;;2.63;1.20;;;0.70;99.90;;;;;;4831269;28;20101;-81
2021/01/28 07:32:04;;;;;;;1.50;0.80;;;0.70;99.90;;;;;;4846672;28;20185;-84
2021/01/28 07:34:28;;;;;;;2.15;0.60;;;0.70;99.90;;;;;;4845281;27;20103;-83
2021/01/28 07:36:53;;;;;;;1.25;0.80;;;0.70;99.90;;;;;;4829350;28;20573;-80
2021/01/28 07:39:41;;;;;;;2.60;1.23;;;0.70;99.90;;;;;;4831460;28;20082;-83
2021/01/28 07:42:08;;;;;;;2.65;1.10;;;0.80;99.90;;;;;;4828335;28;20088;-83
2021/01/28 07:44:52;;;;;;;3.15;1.20;;;0.70;99.90;;;;;;4828660;28;20095;-80
2021/01/28 07:47:47;;;;;;;1.40;0.85;;;0.70;99.90;;;;;;4846236;27;20168;-82
2021/01/28 07:50:35;;;;;;;3.90;0.93;;;0.70;99.90;;;;;;4836395;28;20087;-81
2021/01/28 07:53:19;;;;;;;6.70;1.00;;;0.70;99.90;;;;;;4846260;28;20543;-81
2021/01/28 07:55:45;;;;;;;2.15;0.65;;;0.70;99.90;;;;;;4922471;27;20090;-83
2021/01/28 07:58:18;;;;;;;;;;;0.70;99.90;;;;;;4930702;27;20436;-83
2021/01/28 08:00:44;;;;;;;3.10;0.50;;;0.70;99.90;;;;;;4848070;28;19971;-82
2021/01/28 08:03:31;;;;;;;2.17;0.95;;;0.70;99.90;;;;;;4849665;28;20434;-84
2021/01/28 08:05:56;;;;;;;3.97;1.13;;;0.70;99.90;;;;;;4860061;27;20109;-84
2021/01/28 08:08:21;;;;;;;0.60;0.57;;;0.70;99.90;;;;;;4833248;28;20113;-85
2021/01/28 08:10:46;;;;;;;1.48;0.63;;;0.70;99.90;;;;;;4830487;28;20424;-85
2021/01/28 08:13:21;;;;;;;1.02;0.60;;;0.70;99.90;;;;;;4831557;28;20761;-84
2021/01/28 08:15:48;;;;;;;7.43;1.73;;;0.70;99.90;;;;;;4847029;28;20088;-84
2021/01/28 08:18:19;;;;;;;2.28;0.80;;;0.70;99.90;;;;;;4853235;27;20097;-84
2021/01/28 08:20:42;;;;;;;1.85;0.80;;;0.70;99.90;;;;;;4829696;28;20090;-85
2021/01/28 08:23:14;;;;;;;4.20;1.20;;;0.70;99.90;;;;;;4830309;27;20111;-83
2021/01/28 08:25:50;;;;;;;2.83;1.00;;;0.70;99.90;;;;;;4829207;28;20082;-83
2021/01/28 08:28:16;;;;;;;2.45;1.23;;;0.70;99.90;;;;;;4847695;27;20583;-83
2021/01/28 08:30:41;;;;;;;3.90;1.40;;;0.70;99.90;;;;;;4848903;27;20094;-83
2021/01/28 08:33:05;;;;;;;2.53;0.63;;;0.70;99.90;;;;;;4846256;27;20084;-83
2021/01/28 08:35:36;;;;;;;6.47;0.70;;;0.70;99.90;;;;;;4843117;27;20436;-81
2021/01/28 08:38:18;;;;;;;2.22;0.77;;;0.70;99.90;;;;;;4848525;28;20086;-82
2021/01/28 08:40:44;;;;;;;3.15;1.13;;;0.70;99.90;;;;;;4830270;28;20085;-81
2021/01/28 08:43:14;;;;;;;1.50;0.50;;;0.60;99.90;;;;;;4830227;28;20085;-83
2021/01/28 08:45:39;;;;;;;1.25;0.55;;;;;;;;;;4830669;28;20101;-83
2021/01/28 08:48:05;;;;;;;3.87;0.47;;;0.70;99.90;;;;;;4833453;28;20090;-83
2021/01/28 08:50:30;;;;;;;3.55;0.60;;;0.70;99.90;;;;;;4832999;28;20578;-83
2021/01/28 08:52:59;;;;;;;0.93;0.63;;;0.70;99.90;;;;;;4830884;28;22474;-83
2021/01/28 08:55:27;;;;;;;3.10;0.80;;;0.70;99.90;;;;;;4848922;27;20099;-82
2021/01/28 08:57:50;;;;;;;1.35;0.40;;;0.70;99.90;;;;;;4829261;28;20525;-83
2021/01/28 09:00:22;;;;;;;4.13;0.80;;;0.60;99.90;;;;;;4835627;28;20087;-83
2021/01/28 09:02:59;;;;;;;4.07;0.60;;;0.50;99.90;;;;;;4793621;27;20182;-82
2021/01/28 09:05:37;;;;;;;0.77;0.50;;;0.60;99.90;;;;;;4821670;27;20140;-84
2021/01/28 09:08:33;;;;;;;6.00;0.85;;;0.60;99.90;;;;;;4827828;27;20091;-81
2021/01/28 09:14:55;;;;;;;5.50;0.85;;;0.70;99.90;;;;;;4773824;28;20135;-83
2021/01/28 09:18:00;;;;;;;0.43;0.32;;;0.70;99.90;;;;;;4792522;28;20366;-81
2021/01/28 09:21:22;;;;;;;0.35;0.20;;;0.70;99.90;;;;;;4809591;27;20168;-82
2021/01/28 09:24:49;;;;;;;1.95;0.80;;;0.70;99.90;;;;;;4798539;28;20092;-81
2021/01/28 09:37:47;;;;;;;1.42;0.80;;;0.80;99.90;;;;;;4801542;28;20527;-84
2021/01/28 09:53:56;;;;;;;2.28;0.95;;;0.70;99.90;;;;;;4793482;28;20098;-82
2021/01/28 09:56:47;;;;;;;2.92;1.05;;;0.90;99.90;;;;;;4790435;27;20094;-82
2021/01/28 10:06:18;;;;;;;4.32;0.55;;;1.30;99.90;;;;;;4781529;28;20092;-83
2021/01/28 10:12:37;;;;;;;0.85;0.32;;;1.10;99.90;;;;;;4782463;28;20146;-83
2021/01/28 10:18:46;;;;;;;2.75;0.77;;;1.30;99.90;;;;;;4799270;27;20163;-82
2021/01/28 10:21:50;;;;;;;1.17;0.47;;;1.30;99.90;;;;;;4801098;27;20102;-85
2021/01/28 10:45:10;;;;;;;5.75;0.90;;;0.80;99.90;;;;;;4815279;28;20096;-81
2021/01/28 10:47:58;;;;;;;0.22;0.22;;;0.80;99.90;;;;;;4813692;27;20123;-83
2021/01/28 10:50:22;;;;;;;1.63;0.20;;;0.60;99.90;;;;;;4885924;27;20099;-81
2021/01/28 10:52:45;;;;;;;1.05;0.43;;;0.60;99.90;;;;;;4886367;27;20182;-83
2021/01/28 10:55:09;;;;;;;0.20;0.10;;;0.60;99.90;;;;;;4879535;27;20090;-85
2021/01/28 10:57:33;;;;;;;2.83;0.22;;;0.70;99.90;;;;;;4887642;27;20104;-83
2021/01/28 10:59:56;;;;;;;0.70;0.40;;;0.70;99.90;;;;;;4881545;27;20099;-82
2021/01/28 11:02:19;;;;;;;4.53;0.50;;;0.70;99.90;;;;;;4884845;27;20096;-82
2021/01/28 11:04:42;;;;;;;4.93;0.70;;;;;;;;;;4878714;27;20095;-83
2021/01/28 11:07:04;;;;;;;0.63;0.40;;;0.60;99.90;;;;;;4878194;27;20116;-81
2021/01/28 11:09:27;;;;;;;1.20;0.63;;;0.60;99.90;;;;;;4865347;27;20546;-83
2021/01/28 11:11:49;;;;;;;0.70;0.25;;;0.60;99.90;;;;;;4845095;27;20098;-83
2021/01/28 11:14:12;;;;;;;1.00;0.40;;;0.60;99.90;;;;;;4846659;28;20451;-83
2021/01/28 11:16:36;;;;;;;2.85;0.80;;;0.60;99.90;;;;;;4844545;27;20090;-83
2021/01/28 11:18:59;;;;;;;0.30;0.30;;;0.60;99.90;;;;;;4844951;27;20674;-83
2021/01/28 11:21:22;;;;;;;2.15;0.40;;;0.50;99.90;;;;;;4837123;27;20107;-85
2021/01/28 11:23:45;;;;;;;2.92;0.40;;;0.40;99.90;;;;;;4845927;27;20436;-82
2021/01/28 11:26:08;;;;;;;0.57;0.30;;;;;;;;;;4835702;28;20513;-83
2021/01/28 11:28:31;;;;;;;3.90;0.70;;;0.30;99.90;;;;;;4826401;28;20094;-84
2021/01/28 11:30:55;;;;;;;2.10;0.25;;;0.30;99.90;;;;;;4826502;28;20110;-82
2021/01/28 11:33:19;;;;;;;0.50;0.38;;;0.40;99.90;;;;;;4827134;28;20499;-82
2021/01/28 11:35:42;;;;;;;2.28;0.50;;;0.40;99.90;;;;;;4828209;28;20105;-82
2021/01/28 11:38:08;;;;;;;1.10;0.30;;;0.50;99.90;;;;;;4830693;28;20089;-80
2021/01/28 11:40:31;;;;;;;;;;;0.50;99.90;;;;;;4831263;27;20603;-82
2021/01/28 11:42:54;;;;;;;2.45;0.40;;;0.60;99.90;;;;;;4849490;28;20533;-85
2021/01/28 11:45:19;;;;;;;3.92;0.80;;;0.70;99.90;;;;;;4847195;28;20193;-84
2021/01/28 11:47:42;;;;;;;0.30;0.25;;;0.60;99.90;;;;;;4848577;28;20082;-84
2021/01/28 11:50:08;;;;;;;0.35;0.35;;;0.60;99.90;;;;;;4847150;28;20434;-84
2021/01/28 11:52:31;;;;;;;1.48;0.30;;;0.60;99.90;;;;;;4882746;27;20503;-81
2021/01/28 11:54:53;;;;;;;4.35;0.50;;;0.50;99.90;;;;;;4828967;28;20091;-85
2021/01/28 11:57:16;;;;;;;4.03;0.47;;;0.60;99.90;;;;;;4848652;27;20430;-83
2021/01/28 11:59:38;;;;;;;0.55;0.35;;;0.60;99.90;;;;;;4847271;27;21066;-84
2021/01/28 12:02:01;;;;;;;3.28;0.68;;;0.70;99.90;;;;;;4847583;27;20512;-84
2021/01/28 12:04:24;;;;;;;1.98;0.60;;;0.80;99.90;;;;;;4848811;27;20150;-83
2021/01/28 12:06:47;;;;;;;2.00;0.50;;;;;;;;;;4848433;27;20124;-83
2021/01/28 12:09:11;;;;;;;2.15;0.60;;;0.80;99.90;;;;;;4849832;27;20106;-83
2021/01/28 12:11:34;;;;;;;4.35;0.90;;;0.80;99.90;;;;;;4848385;27;20092;-83
2021/01/28 12:13:56;;;;;;;1.45;0.47;;;0.70;99.90;;;;;;4849379;28;20093;-84
2021/01/28 12:16:19;;;;;;;2.17;0.47;;;0.70;99.90;;;;;;4848752;27;20086;-83
2021/01/28 12:18:42;;;;;;;1.08;0.50;;;0.70;99.90;;;;;;4849585;27;20102;-82
2021/01/28 12:21:04;;;;;;;3.08;1.00;;;0.80;99.90;;;;;;4847561;27;20117;-84
2021/01/28 12:23:28;;;;;;;1.17;0.40;;;0.80;99.90;;;;;;4849314;27;20107;-83
2021/01/28 12:25:50;;;;;;;3.05;0.68;;;0.80;99.90;;;;;;4848488;27;20094;-83
2021/01/28 12:28:14;;;;;;;2.15;0.52;;;;;;;;;;4849350;27;20446;-83
2021/01/28 12:30:36;;;;;;;2.85;0.47;;;0.80;99.90;;;;;;4848246;27;20458;-83
2021/01/28 12:32:59;;;;;;;1.85;0.40;;;0.80;99.90;;;;;;4848855;27;20089;-84
2021/01/28 12:35:22;;;;;;;2.63;0.40;;;1.00;99.90;;;;;;4840998;27;20104;-83
2021/01/28 12:37:46;;;;;;;6.32;0.80;;;1.10;99.90;;;;;;4831583;28;20104;-82
2021/01/28 12:40:12;;;;;;;3.05;0.25;;;1.00;99.90;;;;;;4847008;27;20098;-84
2021/01/28 12:42:35;;;;;;;3.25;0.35;;;1.10;99.90;;;;;;4847153;27;20096;-82
2021/01/28 12:44:58;;;;;;;4.43;0.40;;;1.00;99.90;;;;;;4847338;27;20180;-82
2021/01/28 12:47:21;;;;;;;1.17;0.35;;;1.10;99.90;;;;;;4848277;27;20094;-83
2021/01/28 12:49:43;;;;;;;2.60;0.47;;;1.10;99.90;;;;;;4829663;28;20099;-81
2021/01/28 12:52:06;;;;;;;0.55;0.30;;;1.10;99.90;;;;;;4829053;28;20103;-81
2021/01/28 12:54:29;;;;;;;0.32;0.30;;;;;;;;;;4843277;28;20548;-83
2021/01/28 12:56:52;;;;;;;1.63;0.50;;;0.90;99.90;;;;;;4831316;28;20102;-83
2021/01/28 12:59:15;;;;;;;2.60;0.17;;;3.30;99.90;;;;;;4829688;28;20093;-82
2021/01/28 13:01:38;;;;;;;0.65;0.30;;;0.90;99.90;;;;;;4827830;28;20102;-83
2021/01/28 13:04:00;;;;;;;2.78;0.35;;;0.80;99.90;;;;;;4829664;28;20111;-83
2021/01/28 13:06:23;;;;;;;0.90;0.30;;;0.80;99.90;;;;;;4832766;28;20489;-83
2021/01/28 13:08:46;;;;;;;2.55;0.32;;;0.70;99.90;;;;;;4829041;28;20616;-84
2021/01/28 13:11:09;;;;;;;1.98;0.65;;;0.60;99.90;;;;;;4827762;28;20658;-83
2021/01/28 13:13:33;;;;;;;0.63;0.20;;;;;;;;;;4830751;28;20109;-81
2021/01/28 13:15:55;;;;;;;0.32;0.13;;;0.80;99.90;;;;;;4835233;28;20101;-82
2021/01/28 13:18:18;;;;;;;0.95;0.30;;;0.80;99.90;;;;;;4846656;28;20094;-83
2021/01/28 13:20:41;;;;;;;0.85;0.20;;;0.70;99.90;;;;;;4871923;27;20092;-82
2021/01/28 13:23:03;;;;;;;0.25;0.10;;;-0.80;99.90;;;;;;4820583;28;20096;-83
2021/01/28 13:25:26;;;;;;;1.08;0.30;;;0.70;99.90;;;;;;4828760;28;20092;-83
2021/01/28 13:27:49;;;;;;;2.78;0.30;;;0.70;99.90;;;;;;4826421;28;20098;-82
2021/01/28 13:30:16;;;;;;;0.55;0.22;;;0.60;99.90;;;;;;4827789;28;20092;-82
2021/01/28 13:32:38;;;;;;;0.75;0.43;;;0.50;99.90;;;;;;4828212;28;20105;-82
2021/01/28 13:35:02;;;;;;;6.45;0.60;;;0.50;99.90;;;;;;4827910;28;20549;-83
2021/01/28 13:37:24;;;;;;;0.47;0.40;;;0.40;99.90;;;;;;4826712;28;20099;-83
2021/01/28 13:39:48;;;;;;;1.40;0.30;;;0.50;99.90;;;;;;4826816;28;20573;-80
2021/01/28 13:42:11;;;;;;;0.10;0.10;;;0.40;99.90;;;;;;4826656;28;20097;-79
2021/01/28 13:44:33;;;;;;;0.22;0.20;;;0.40;99.90;;;;;;4828937;28;20103;-80
2021/01/28 13:46:57;;;;;;;0.55;0.35;;;0.50;99.90;;;;;;4828107;28;20090;-82
2021/01/28 13:49:19;;;;;;;2.63;0.50;;;0.60;99.90;;;;;;4828317;28;20103;-82
2021/01/28 13:51:42;;;;;;;2.72;0.30;;;0.60;99.90;;;;;;4827992;28;20146;-84
2021/01/28 13:54:05;;;;;;;0.63;0.20;;;0.70;99.90;;;;;;4830350;28;20178;-82
2021/01/28 13:56:27;;;;;;;0.43;0.20;;;0.60;99.90;;;;;;4845517;27;20182;-82
2021/01/28 13:58:50;;;;;;;4.82;0.30;;;0.50;99.90;;;;;;4847926;28;20119;-80
2021/01/28 14:01:12;;;;;;;0.95;0.20;;;0.50;99.90;;;;;;4847276;27;20090;-83